Rock Lake, North Dakota
Current Conditions -  °F | °C
As of 3:15 AM on Friday 19 Dec 2014 (Local Time) from K06D Reporting Station
Haze Haze  
Wind Chill: -9°   Ceiling: 300
Heat Index: -5°   Visibility: 2mi
Dew Point: -5°   Wind: 6mph
Humidity: 100%   Direction: 160°SSE
Pressure: 29.98"   Gusts: NA
Location:  48.8584°N, 99.1311°W
Report Text: K06D 190915Z AUTO 16005KT 2SM BR OVC003 M05/M05 A2998 RMK AO2
Loading
Personal Weather Stations






























Interactive Weather Map New forecast layout! Learn more

10-Day Weather Forecast

Advertisements
Track Severe Weather on mobile